Terminal Aerodrome Forecast
Issued by NWS

Home | Current Version | Previous Version | Text Only | Print | Product List | Glossary On
Versions: 1 2 3 4 5 6 7 8 9 10 11 12 13 14
637
FTUS45 KPIH 272326
TAFSUN
TAF
KSUN 272326Z 2800/2824 27008KT P6SM VCSH SCT120
     FM280300 31010KT P6SM SKC
     FM281800 19010KT P6SM SCT060
      AMD LTD TO CLD VIS AND WIND 2806/2814=

USA.gov is the U.S. government's official web portal to all federal, state and local government web resources and services.